Terminal Aerodrome Forecast
Issued by NWS

Home | Current Version | Previous Version | Text Only | Print | Product List | Glossary On
Versions: 1 2 3 4 5 6 7 8 9 10 11 12 13 14 15 16 17 18 19 20 21 22 23 24 25 26 27 28 29 30 31 32 33 34 35 36 37 38 39
000
FTUS41 KOKX 230535
TAFGON
TAF
KGON 230535Z 2306/2406 06018G29KT 6SM BR OVC009
     FM231800 06027G40KT 3SM RA BR OVC009
     FM232200 06030G49KT 3SM +RA BR OVC009=

USA.gov is the U.S. government's official web portal to all federal, state and local government web resources and services.